Overview Statistics Trail Chart Weather Telemetry Raw packets
 

This is the latest recevied weather packets stored in our database for station/object IZ7EXI-13. If no packets are shown the sender has not sent any weather packets the latest 10 day(s).

<< 36 37 38 39 40 41 42 >>
Time Temp. Humidity Pressure Rain* Wind** Luminosity Snow
1787983486 31.67° C 28% 1016 hPa - - - -
1787982586 31.11° C 29% 1016 hPa - - - -
1787981690 30.56° C 28% 1015.9 hPa - - - -
1787980785 30° C 29% 1015.6 hPa - - - -
1787979884 28.89° C 31% 1015.9 hPa - - - -
1787978984 28.33° C 32% 1015.7 hPa - - - -
1787978084 27.78° C 34% 1015.7 hPa - - - -
1787977215 27.22° C 35% 1015.7 hPa - - - -
1787977184 27.22° C 35% 1015.7 hPa - - - -
1787976284 27.78° C 34% 1015.4 hPa - - - -
1787975383 29.44° C 33% 1014.5 hPa - - - -
1787974483 30.56° C 25% 1014.2 hPa - - - -
1787973583 31.11° C 24% 1014.1 hPa - - - -
1787972683 31.11° C 25% 1014.1 hPa - - - -
1787971818 31.11° C 25% 1013.9 hPa - - - -
1787971783 31.11° C 25% 1013.9 hPa - - - -
1787970882 31.11° C 25% 1014 hPa - - - -
1787970014 31.67° C 25% 1014.1 hPa - - - -
1787969982 31.67° C 25% 1014.1 hPa - - - -
1787969082 31.67° C 24% 1014.1 hPa - - - -
1787968181 31.67° C 24% 1014.2 hPa - - - -
1787967281 31.67° C 24% 1014.2 hPa - - - -
1787966381 31.67° C 25% 1014.4 hPa - - - -
1787965481 31.67° C 27% 1014.6 hPa - - - -
1787964581 31.67° C 26% 1014.9 hPa - - - -

* Rain since midnight (hover to see other rain measurements)
** Current wind speed in m/s (hover to see current wind gust speed)